sensor_id;sensor_type;location;lat;lon;timestamp;temperature;humidity
563;DHT22;266;49.514;8.294;2023-03-21T00:00:40;10.20;99.90
563;DHT22;266;49.514;8.294;2023-03-21T00:03:08;10.20;99.90
563;DHT22;266;49.514;8.294;2023-03-21T00:05:39;10.10;99.90
563;DHT22;266;49.514;8.294;2023-03-21T00:08:09;10.10;99.90
563;DHT22;266;49.514;8.294;2023-03-21T00:10:37;10.10;99.90
563;DHT22;266;49.514;8.294;2023-03-21T00:13:09;10.10;99.90
563;DHT22;266;49.514;8.294;2023-03-21T00:15:39;10.10;99.90
563;DHT22;266;49.514;8.294;2023-03-21T00:18:36;10.10;99.90
563;DHT22;266;49.514;8.294;2023-03-21T00:21:10;10.00;99.90
563;DHT22;266;49.514;8.294;2023-03-21T00:24:03;10.00;99.90
563;DHT22;266;49.514;8.294;2023-03-21T00:26:33;10.00;99.90
563;DHT22;266;49.514;8.294;2023-03-21T00:29:01;10.00;99.90
563;DHT22;266;49.514;8.294;2023-03-21T00:31:29;10.10;99.90
563;DHT22;266;49.514;8.294;2023-03-21T00:33:57;10.20;99.90
563;DHT22;266;49.514;8.294;2023-03-21T00:36:25;10.10;99.90
563;DHT22;266;49.514;8.294;2023-03-21T00:38:53;10.00;99.90
563;DHT22;266;49.514;8.294;2023-03-21T00:41:25;9.90;99.90
563;DHT22;266;49.514;8.294;2023-03-21T00:44:08;9.90;99.90
563;DHT22;266;49.514;8.294;2023-03-21T00:46:37;10.00;99.90
563;DHT22;266;49.514;8.294;2023-03-21T00:49:17;9.90;99.90
563;DHT22;266;49.514;8.294;2023-03-21T00:51:46;9.90;99.90
563;DHT22;266;49.514;8.294;2023-03-21T00:54:17;9.90;99.90
563;DHT22;266;49.514;8.294;2023-03-21T00:56:47;9.80;99.90
563;DHT22;266;49.514;8.294;2023-03-21T00:59:15;9.80;99.90
563;DHT22;266;49.514;8.294;2023-03-21T01:01:43;9.80;99.90
563;DHT22;266;49.514;8.294;2023-03-21T01:04:13;9.80;99.90
563;DHT22;266;49.514;8.294;2023-03-21T01:06:43;9.90;99.90
563;DHT22;266;49.514;8.294;2023-03-21T01:09:12;9.90;99.90
563;DHT22;266;49.514;8.294;2023-03-21T01:11:41;9.80;99.90
563;DHT22;266;49.514;8.294;2023-03-21T01:14:10;9.80;99.90
563;DHT22;266;49.514;8.294;2023-03-21T01:16:49;9.70;99.90
563;DHT22;266;49.514;8.294;2023-03-21T01:19:20;9.60;99.90
563;DHT22;266;49.514;8.294;2023-03-21T01:22:06;9.70;99.90
563;DHT22;266;49.514;8.294;2023-03-21T01:24:34;9.60;99.90
563;DHT22;266;49.514;8.294;2023-03-21T01:27:12;9.50;99.90
563;DHT22;266;49.514;8.294;2023-03-21T01:29:41;9.40;99.90
563;DHT22;266;49.514;8.294;2023-03-21T01:32:09;9.40;99.90
563;DHT22;266;49.514;8.294;2023-03-21T01:34:37;9.40;99.90
563;DHT22;266;49.514;8.294;2023-03-21T01:37:04;9.40;99.90
563;DHT22;266;49.514;8.294;2023-03-21T01:39:32;9.50;99.90
563;DHT22;266;49.514;8.294;2023-03-21T01:42:01;9.50;99.90
563;DHT22;266;49.514;8.294;2023-03-21T01:44:29;9.60;99.90
563;DHT22;266;49.514;8.294;2023-03-21T01:46:59;9.70;99.90
563;DHT22;266;49.514;8.294;2023-03-21T01:49:44;9.70;99.90
563;DHT22;266;49.514;8.294;2023-03-21T01:52:17;9.70;99.90
563;DHT22;266;49.514;8.294;2023-03-21T01:55:02;9.70;99.90
563;DHT22;266;49.514;8.294;2023-03-21T01:57:37;9.70;99.90
563;DHT22;266;49.514;8.294;2023-03-21T02:00:25;9.70;99.90
563;DHT22;266;49.514;8.294;2023-03-21T02:02:57;9.70;99.90
563;DHT22;266;49.514;8.294;2023-03-21T02:05:42;9.70;99.90
563;DHT22;266;49.514;8.294;2023-03-21T02:08:15;9.80;99.90
563;DHT22;266;49.514;8.294;2023-03-21T02:10:45;9.70;99.90
563;DHT22;266;49.514;8.294;2023-03-21T02:13:16;9.80;99.90
563;DHT22;266;49.514;8.294;2023-03-21T02:15:48;9.70;99.90
563;DHT22;266;49.514;8.294;2023-03-21T02:18:26;9.80;99.90
563;DHT22;266;49.514;8.294;2023-03-21T02:24:30;9.80;99.90
563;DHT22;266;49.514;8.294;2023-03-21T02:27:13;9.80;99.90
563;DHT22;266;49.514;8.294;2023-03-21T02:30:01;9.80;99.90
563;DHT22;266;49.514;8.294;2023-03-21T02:33:18;9.70;99.90
563;DHT22;266;49.514;8.294;2023-03-21T02:36:14;9.60;99.90
563;DHT22;266;49.514;8.294;2023-03-21T02:38:49;9.60;99.90
563;DHT22;266;49.514;8.294;2023-03-21T02:41:26;9.60;99.90
563;DHT22;266;49.514;8.294;2023-03-21T02:44:08;9.60;99.90
563;DHT22;266;49.514;8.294;2023-03-21T02:46:40;9.60;99.90
563;DHT22;266;49.514;8.294;2023-03-21T02:49:25;9.50;99.90
563;DHT22;266;49.514;8.294;2023-03-21T02:51:55;9.50;99.90
563;DHT22;266;49.514;8.294;2023-03-21T02:54:40;9.50;99.90
563;DHT22;266;49.514;8.294;2023-03-21T02:57:15;9.60;99.90
563;DHT22;266;49.514;8.294;2023-03-21T02:59:46;9.60;99.90
563;DHT22;266;49.514;8.294;2023-03-21T03:02:25;9.60;99.90
563;DHT22;266;49.514;8.294;2023-03-21T03:04:53;9.40;99.90
563;DHT22;266;49.514;8.294;2023-03-21T03:07:33;9.40;99.90
563;DHT22;266;49.514;8.294;2023-03-21T03:10:15;9.30;99.90
563;DHT22;266;49.514;8.294;2023-03-21T03:12:54;9.20;99.90
563;DHT22;266;49.514;8.294;2023-03-21T03:15:29;9.10;99.90
563;DHT22;266;49.514;8.294;2023-03-21T03:18:09;9.10;99.90
563;DHT22;266;49.514;8.294;2023-03-21T03:20:47;9.00;99.90
563;DHT22;266;49.514;8.294;2023-03-21T03:23:23;9.00;99.90
563;DHT22;266;49.514;8.294;2023-03-21T03:25:57;9.00;99.90
563;DHT22;266;49.514;8.294;2023-03-21T03:28:30;9.00;99.90
563;DHT22;266;49.514;8.294;2023-03-21T03:31:00;9.10;99.90
563;DHT22;266;49.514;8.294;2023-03-21T03:33:38;9.10;99.90
563;DHT22;266;49.514;8.294;2023-03-21T03:36:10;9.20;99.90
563;DHT22;266;49.514;8.294;2023-03-21T03:38:58;9.10;99.90
563;DHT22;266;49.514;8.294;2023-03-21T03:41:29;9.00;99.90
563;DHT22;266;49.514;8.294;2023-03-21T03:44:17;9.10;99.90
563;DHT22;266;49.514;8.294;2023-03-21T03:46:49;9.20;99.90
563;DHT22;266;49.514;8.294;2023-03-21T03:49:23;9.20;99.90
563;DHT22;266;49.514;8.294;2023-03-21T03:51:55;9.20;99.90
563;DHT22;266;49.514;8.294;2023-03-21T03:54:27;9.30;99.90
563;DHT22;266;49.514;8.294;2023-03-21T03:56:59;9.20;99.90
563;DHT22;266;49.514;8.294;2023-03-21T03:59:27;9.20;99.90
563;DHT22;266;49.514;8.294;2023-03-21T04:01:55;9.20;99.90
563;DHT22;266;49.514;8.294;2023-03-21T04:04:23;9.20;99.90
563;DHT22;266;49.514;8.294;2023-03-21T04:06:56;9.10;99.90
563;DHT22;266;49.514;8.294;2023-03-21T04:09:25;9.00;99.90
563;DHT22;266;49.514;8.294;2023-03-21T04:12:10;9.00;99.90
563;DHT22;266;49.514;8.294;2023-03-21T04:14:39;9.00;99.90
563;DHT22;266;49.514;8.294;2023-03-21T04:17:13;9.00;99.90
563;DHT22;266;49.514;8.294;2023-03-21T04:19:41;9.10;99.90
563;DHT22;266;49.514;8.294;2023-03-21T04:22:09;9.00;99.90
563;DHT22;266;49.514;8.294;2023-03-21T04:24:37;9.00;99.90
563;DHT22;266;49.514;8.294;2023-03-21T04:27:05;9.00;99.90
563;DHT22;266;49.514;8.294;2023-03-21T04:29:35;9.00;99.90
563;DHT22;266;49.514;8.294;2023-03-21T04:32:03;9.00;99.90
563;DHT22;266;49.514;8.294;2023-03-21T04:34:31;9.00;99.90
563;DHT22;266;49.514;8.294;2023-03-21T04:37:05;9.00;99.90
563;DHT22;266;49.514;8.294;2023-03-21T04:39:37;9.00;99.90
563;DHT22;266;49.514;8.294;2023-03-21T04:42:06;9.00;99.90
563;DHT22;266;49.514;8.294;2023-03-21T04:44:35;9.10;99.90
563;DHT22;266;49.514;8.294;2023-03-21T04:47:03;9.10;99.90
563;DHT22;266;49.514;8.294;2023-03-21T04:49:31;9.10;99.90
563;DHT22;266;49.514;8.294;2023-03-21T04:51:59;9.20;99.90
563;DHT22;266;49.514;8.294;2023-03-21T04:54:27;9.10;99.90
563;DHT22;266;49.514;8.294;2023-03-21T04:56:56;9.10;99.90
563;DHT22;266;49.514;8.294;2023-03-21T04:59:24;9.10;99.90
563;DHT22;266;49.514;8.294;2023-03-21T05:01:53;9.10;99.90
563;DHT22;266;49.514;8.294;2023-03-21T05:04:22;9.20;99.90
563;DHT22;266;49.514;8.294;2023-03-21T05:06:50;9.20;99.90
563;DHT22;266;49.514;8.294;2023-03-21T05:09:18;9.30;99.90
563;DHT22;266;49.514;8.294;2023-03-21T05:11:48;9.30;99.90
563;DHT22;266;49.514;8.294;2023-03-21T05:14:18;9.20;99.90
563;DHT22;266;49.514;8.294;2023-03-21T05:16:47;9.20;99.90
563;DHT22;266;49.514;8.294;2023-03-21T05:19:21;9.20;99.90
563;DHT22;266;49.514;8.294;2023-03-21T05:21:49;9.20;99.90
563;DHT22;266;49.514;8.294;2023-03-21T05:24:19;9.20;99.90
563;DHT22;266;49.514;8.294;2023-03-21T05:26:47;9.20;99.90
563;DHT22;266;49.514;8.294;2023-03-21T05:29:20;9.10;99.90
563;DHT22;266;49.514;8.294;2023-03-21T05:31:48;9.10;99.90
563;DHT22;266;49.514;8.294;2023-03-21T05:34:17;9.00;99.90
563;DHT22;266;49.514;8.294;2023-03-21T05:36:48;9.00;99.90
563;DHT22;266;49.514;8.294;2023-03-21T05:39:16;9.00;99.90
563;DHT22;266;49.514;8.294;2023-03-21T05:41:44;9.10;99.90
563;DHT22;266;49.514;8.294;2023-03-21T05:44:12;9.00;99.90
563;DHT22;266;49.514;8.294;2023-03-21T05:46:40;8.90;99.90
563;DHT22;266;49.514;8.294;2023-03-21T05:49:09;9.00;99.90
563;DHT22;266;49.514;8.294;2023-03-21T05:51:38;8.90;99.90
563;DHT22;266;49.514;8.294;2023-03-21T05:54:07;8.80;99.90
563;DHT22;266;49.514;8.294;2023-03-21T05:56:35;8.70;99.90
563;DHT22;266;49.514;8.294;2023-03-21T05:59:03;8.80;99.90
563;DHT22;266;49.514;8.294;2023-03-21T06:01:33;8.80;99.90
563;DHT22;266;49.514;8.294;2023-03-21T06:04:01;8.90;99.90
563;DHT22;266;49.514;8.294;2023-03-21T06:06:29;8.90;99.90
563;DHT22;266;49.514;8.294;2023-03-21T06:08:56;9.10;99.90
563;DHT22;266;49.514;8.294;2023-03-21T06:11:28;9.10;99.90
563;DHT22;266;49.514;8.294;2023-03-21T06:13:57;9.10;99.90
563;DHT22;266;49.514;8.294;2023-03-21T06:16:25;9.20;99.90
563;DHT22;266;49.514;8.294;2023-03-21T06:18:54;9.20;99.90
563;DHT22;266;49.514;8.294;2023-03-21T06:21:22;9.20;99.90
563;DHT22;266;49.514;8.294;2023-03-21T06:23:52;9.30;99.90
563;DHT22;266;49.514;8.294;2023-03-21T06:26:20;9.30;99.90
563;DHT22;266;49.514;8.294;2023-03-21T06:28:51;9.40;99.90
563;DHT22;266;49.514;8.294;2023-03-21T06:31:19;9.40;99.90
563;DHT22;266;49.514;8.294;2023-03-21T06:33:48;9.50;99.90
563;DHT22;266;49.514;8.294;2023-03-21T06:36:18;9.60;99.90
563;DHT22;266;49.514;8.294;2023-03-21T06:38:46;9.70;99.90
563;DHT22;266;49.514;8.294;2023-03-21T06:41:14;9.70;99.90
563;DHT22;266;49.514;8.294;2023-03-21T06:43:42;9.70;99.90
563;DHT22;266;49.514;8.294;2023-03-21T06:46:11;9.70;99.90
563;DHT22;266;49.514;8.294;2023-03-21T06:48:40;9.80;99.90
563;DHT22;266;49.514;8.294;2023-03-21T06:51:11;9.80;99.90
563;DHT22;266;49.514;8.294;2023-03-21T06:53:39;9.80;99.90
563;DHT22;266;49.514;8.294;2023-03-21T06:56:11;9.80;99.90
563;DHT22;266;49.514;8.294;2023-03-21T06:58:40;9.80;99.90
563;DHT22;266;49.514;8.294;2023-03-21T07:01:08;9.90;99.90
563;DHT22;266;49.514;8.294;2023-03-21T07:03:37;10.00;99.90
563;DHT22;266;49.514;8.294;2023-03-21T07:06:07;10.10;99.90
563;DHT22;266;49.514;8.294;2023-03-21T07:08:37;10.10;99.90
563;DHT22;266;49.514;8.294;2023-03-21T07:11:06;10.20;99.90
563;DHT22;266;49.514;8.294;2023-03-21T07:13:34;10.30;99.90
563;DHT22;266;49.514;8.294;2023-03-21T07:16:02;10.40;99.90
563;DHT22;266;49.514;8.294;2023-03-21T07:18:30;10.40;99.90
563;DHT22;266;49.514;8.294;2023-03-21T07:20:59;10.50;99.90
563;DHT22;266;49.514;8.294;2023-03-21T07:23:27;10.50;99.90
563;DHT22;266;49.514;8.294;2023-03-21T07:25:55;10.60;99.90
563;DHT22;266;49.514;8.294;2023-03-21T07:28:24;10.70;99.90
563;DHT22;266;49.514;8.294;2023-03-21T07:30:53;10.80;99.90
563;DHT22;266;49.514;8.294;2023-03-21T07:33:22;10.90;99.90
563;DHT22;266;49.514;8.294;2023-03-21T07:35:50;11.00;99.90
563;DHT22;266;49.514;8.294;2023-03-21T07:38:20;11.20;99.90
563;DHT22;266;49.514;8.294;2023-03-21T07:40:48;11.40;99.90
563;DHT22;266;49.514;8.294;2023-03-21T07:43:16;11.30;99.90
563;DHT22;266;49.514;8.294;2023-03-21T07:45:49;11.50;99.90
563;DHT22;266;49.514;8.294;2023-03-21T07:48:19;11.60;99.90
563;DHT22;266;49.514;8.294;2023-03-21T07:50:48;11.60;99.90
563;DHT22;266;49.514;8.294;2023-03-21T07:53:16;11.70;99.90
563;DHT22;266;49.514;8.294;2023-03-21T07:55:48;11.90;99.90
563;DHT22;266;49.514;8.294;2023-03-21T07:58:16;12.10;99.90
563;DHT22;266;49.514;8.294;2023-03-21T08:00:46;12.20;99.90
563;DHT22;266;49.514;8.294;2023-03-21T08:03:14;12.50;99.90
563;DHT22;266;49.514;8.294;2023-03-21T08:05:42;12.80;99.90
563;DHT22;266;49.514;8.294;2023-03-21T08:08:11;12.90;99.90
563;DHT22;266;49.514;8.294;2023-03-21T08:10:41;13.00;99.90
563;DHT22;266;49.514;8.294;2023-03-21T08:13:11;13.00;99.90
563;DHT22;266;49.514;8.294;2023-03-21T08:15:39;13.00;99.90
563;DHT22;266;49.514;8.294;2023-03-21T08:18:08;13.00;99.90
563;DHT22;266;49.514;8.294;2023-03-21T08:20:38;13.00;99.90
563;DHT22;266;49.514;8.294;2023-03-21T08:23:06;13.00;99.90
563;DHT22;266;49.514;8.294;2023-03-21T08:25:34;13.00;99.90
563;DHT22;266;49.514;8.294;2023-03-21T08:28:03;13.00;99.90
563;DHT22;266;49.514;8.294;2023-03-21T08:30:32;13.10;99.90
563;DHT22;266;49.514;8.294;2023-03-21T08:33:00;13.50;99.90
563;DHT22;266;49.514;8.294;2023-03-21T08:35:29;13.70;99.90
563;DHT22;266;49.514;8.294;2023-03-21T08:37:57;13.90;99.90
563;DHT22;266;49.514;8.294;2023-03-21T08:40:25;14.00;99.90
563;DHT22;266;49.514;8.294;2023-03-21T08:42:53;14.10;99.90
563;DHT22;266;49.514;8.294;2023-03-21T08:45:21;14.10;99.90
563;DHT22;266;49.514;8.294;2023-03-21T08:47:50;14.00;99.90
563;DHT22;266;49.514;8.294;2023-03-21T08:50:20;13.80;99.90
563;DHT22;266;49.514;8.294;2023-03-21T08:52:48;13.60;99.90
563;DHT22;266;49.514;8.294;2023-03-21T08:55:17;13.50;99.90
563;DHT22;266;49.514;8.294;2023-03-21T08:57:46;13.40;99.90
563;DHT22;266;49.514;8.294;2023-03-21T09:00:15;13.40;99.90
563;DHT22;266;49.514;8.294;2023-03-21T09:02:48;13.30;99.90
563;DHT22;266;49.514;8.294;2023-03-21T09:05:19;13.20;99.90
563;DHT22;266;49.514;8.294;2023-03-21T09:07:48;13.20;99.90
563;DHT22;266;49.514;8.294;2023-03-21T09:10:18;13.10;99.90
563;DHT22;266;49.514;8.294;2023-03-21T09:12:48;13.10;99.90
563;DHT22;266;49.514;8.294;2023-03-21T09:15:17;13.20;99.90
563;DHT22;266;49.514;8.294;2023-03-21T09:17:47;13.10;99.90
563;DHT22;266;49.514;8.294;2023-03-21T09:20:21;13.20;99.90
563;DHT22;266;49.514;8.294;2023-03-21T09:22:56;13.20;99.90
563;DHT22;266;49.514;8.294;2023-03-21T09:25:24;13.30;99.90
563;DHT22;266;49.514;8.294;2023-03-21T09:27:55;13.40;99.90
563;DHT22;266;49.514;8.294;2023-03-21T09:30:23;13.40;99.90
563;DHT22;266;49.514;8.294;2023-03-21T09:32:52;13.30;99.90
563;DHT22;266;49.514;8.294;2023-03-21T09:35:23;13.20;99.90
563;DHT22;266;49.514;8.294;2023-03-21T09:37:53;13.20;99.90
563;DHT22;266;49.514;8.294;2023-03-21T09:40:35;13.30;99.90
563;DHT22;266;49.514;8.294;2023-03-21T09:43:16;13.50;99.90
563;DHT22;266;49.514;8.294;2023-03-21T09:45:51;13.50;99.90
563;DHT22;266;49.514;8.294;2023-03-21T09:48:34;13.50;99.90
563;DHT22;266;49.514;8.294;2023-03-21T09:51:17;13.60;99.90
563;DHT22;266;49.514;8.294;2023-03-21T09:53:48;13.70;99.90
563;DHT22;266;49.514;8.294;2023-03-21T09:56:17;13.70;99.90
563;DHT22;266;49.514;8.294;2023-03-21T09:58:47;13.80;99.90
563;DHT22;266;49.514;8.294;2023-03-21T10:01:20;13.80;99.90
563;DHT22;266;49.514;8.294;2023-03-21T10:03:54;13.90;99.90
563;DHT22;266;49.514;8.294;2023-03-21T10:06:24;13.90;99.90
563;DHT22;266;49.514;8.294;2023-03-21T10:08:57;13.90;99.90
563;DHT22;266;49.514;8.294;2023-03-21T10:11:30;13.90;99.90
563;DHT22;266;49.514;8.294;2023-03-21T10:14:02;14.00;99.90
563;DHT22;266;49.514;8.294;2023-03-21T10:16:33;14.10;99.90
563;DHT22;266;49.514;8.294;2023-03-21T10:19:05;14.10;99.90
563;DHT22;266;49.514;8.294;2023-03-21T10:21:39;14.10;99.90
563;DHT22;266;49.514;8.294;2023-03-21T10:24:27;14.00;99.90
563;DHT22;266;49.514;8.294;2023-03-21T10:26:56;14.00;99.90
563;DHT22;266;49.514;8.294;2023-03-21T10:29:27;14.00;99.90
563;DHT22;266;49.514;8.294;2023-03-21T10:31:56;14.00;99.90
563;DHT22;266;49.514;8.294;2023-03-21T10:34:29;14.00;99.90
563;DHT22;266;49.514;8.294;2023-03-21T10:37:00;13.90;99.90
563;DHT22;266;49.514;8.294;2023-03-21T10:39:32;13.80;99.90
563;DHT22;266;49.514;8.294;2023-03-21T10:42:01;13.80;99.90
563;DHT22;266;49.514;8.294;2023-03-21T10:44:31;13.80;99.90
563;DHT22;266;49.514;8.294;2023-03-21T10:47:04;13.80;99.90
563;DHT22;266;49.514;8.294;2023-03-21T10:49:33;13.80;99.90
563;DHT22;266;49.514;8.294;2023-03-21T10:52:26;13.70;99.90
563;DHT22;266;49.514;8.294;2023-03-21T10:55:06;13.70;99.90
563;DHT22;266;49.514;8.294;2023-03-21T10:57:35;13.60;99.90
563;DHT22;266;49.514;8.294;2023-03-21T11:00:05;13.50;99.90
563;DHT22;266;49.514;8.294;2023-03-21T11:02:40;13.40;99.90
563;DHT22;266;49.514;8.294;2023-03-21T11:05:18;13.30;99.90
563;DHT22;266;49.514;8.294;2023-03-21T11:07:58;13.20;99.90
563;DHT22;266;49.514;8.294;2023-03-21T11:10:29;13.20;99.90
563;DHT22;266;49.514;8.294;2023-03-21T11:13:02;13.20;99.90
563;DHT22;266;49.514;8.294;2023-03-21T11:15:37;13.10;99.90
563;DHT22;266;49.514;8.294;2023-03-21T11:18:16;13.20;99.90
563;DHT22;266;49.514;8.294;2023-03-21T11:20:50;13.30;99.90
563;DHT22;266;49.514;8.294;2023-03-21T11:23:20;13.30;99.90
563;DHT22;266;49.514;8.294;2023-03-21T11:25:49;13.40;99.90
563;DHT22;266;49.514;8.294;2023-03-21T11:28:19;13.40;99.90
563;DHT22;266;49.514;8.294;2023-03-21T11:30:53;13.60;99.90
563;DHT22;266;49.514;8.294;2023-03-21T11:33:24;13.70;99.90
563;DHT22;266;49.514;8.294;2023-03-21T11:35:58;13.90;99.90
563;DHT22;266;49.514;8.294;2023-03-21T11:38:33;14.00;99.90
563;DHT22;266;49.514;8.294;2023-03-21T11:41:03;14.00;99.90
563;DHT22;266;49.514;8.294;2023-03-21T11:43:34;14.00;99.90
563;DHT22;266;49.514;8.294;2023-03-21T11:46:07;14.10;99.90
563;DHT22;266;49.514;8.294;2023-03-21T11:48:39;14.20;99.90
563;DHT22;266;49.514;8.294;2023-03-21T11:51:15;14.30;99.90
563;DHT22;266;49.514;8.294;2023-03-21T11:53:51;14.30;99.90
563;DHT22;266;49.514;8.294;2023-03-21T11:56:25;14.30;99.90
563;DHT22;266;49.514;8.294;2023-03-21T11:59:12;14.40;99.90
563;DHT22;266;49.514;8.294;2023-03-21T12:01:54;14.40;99.90
563;DHT22;266;49.514;8.294;2023-03-21T12:04:38;14.40;99.90
563;DHT22;266;49.514;8.294;2023-03-21T12:07:21;14.50;99.90
563;DHT22;266;49.514;8.294;2023-03-21T12:09:59;14.50;99.90
563;DHT22;266;49.514;8.294;2023-03-21T12:12:38;14.60;99.90
563;DHT22;266;49.514;8.294;2023-03-21T12:15:14;14.70;99.90
563;DHT22;266;49.514;8.294;2023-03-21T12:17:49;14.70;99.90
563;DHT22;266;49.514;8.294;2023-03-21T12:20:38;14.60;99.90
563;DHT22;266;49.514;8.294;2023-03-21T12:23:19;14.70;99.90
563;DHT22;266;49.514;8.294;2023-03-21T12:26:04;14.60;99.90
563;DHT22;266;49.514;8.294;2023-03-21T12:28:40;14.60;99.90
563;DHT22;266;49.514;8.294;2023-03-21T12:31:18;14.70;99.90
563;DHT22;266;49.514;8.294;2023-03-21T12:34:00;14.80;99.90
563;DHT22;266;49.514;8.294;2023-03-21T12:36:43;14.90;99.90
563;DHT22;266;49.514;8.294;2023-03-21T12:39:26;15.00;99.90
563;DHT22;266;49.514;8.294;2023-03-21T12:42:10;15.10;99.90
563;DHT22;266;49.514;8.294;2023-03-21T12:44:46;15.20;99.90
563;DHT22;266;49.514;8.294;2023-03-21T12:47:18;15.30;99.90
563;DHT22;266;49.514;8.294;2023-03-21T12:49:50;15.50;99.90
563;DHT22;266;49.514;8.294;2023-03-21T12:52:24;15.50;99.90
563;DHT22;266;49.514;8.294;2023-03-21T12:54:57;15.40;99.90
563;DHT22;266;49.514;8.294;2023-03-21T12:57:30;15.20;99.90
563;DHT22;266;49.514;8.294;2023-03-21T13:00:02;15.20;99.90
563;DHT22;266;49.514;8.294;2023-03-21T13:02:37;15.20;99.90
563;DHT22;266;49.514;8.294;2023-03-21T13:05:15;15.20;99.90
563;DHT22;266;49.514;8.294;2023-03-21T13:07:48;15.20;99.90
563;DHT22;266;49.514;8.294;2023-03-21T13:10:20;15.20;99.90
563;DHT22;266;49.514;8.294;2023-03-21T13:13:01;15.20;99.90
563;DHT22;266;49.514;8.294;2023-03-21T13:15:54;15.20;99.90
563;DHT22;266;49.514;8.294;2023-03-21T13:18:51;15.20;99.90
563;DHT22;266;49.514;8.294;2023-03-21T13:21:30;15.40;99.90
563;DHT22;266;49.514;8.294;2023-03-21T13:24:01;15.40;99.90
563;DHT22;266;49.514;8.294;2023-03-21T13:26:36;15.30;99.90
563;DHT22;266;49.514;8.294;2023-03-21T13:29:19;15.50;99.90
563;DHT22;266;49.514;8.294;2023-03-21T13:31:51;15.40;99.90
563;DHT22;266;49.514;8.294;2023-03-21T13:34:23;15.30;99.90
563;DHT22;266;49.514;8.294;2023-03-21T13:36:52;15.20;99.90
563;DHT22;266;49.514;8.294;2023-03-21T13:39:24;15.20;99.90
563;DHT22;266;49.514;8.294;2023-03-21T13:41:53;15.10;99.90
563;DHT22;266;49.514;8.294;2023-03-21T13:44:32;15.00;99.90
563;DHT22;266;49.514;8.294;2023-03-21T13:47:04;15.00;99.90
563;DHT22;266;49.514;8.294;2023-03-21T13:49:34;14.90;99.90
563;DHT22;266;49.514;8.294;2023-03-21T13:52:26;14.80;99.90
563;DHT22;266;49.514;8.294;2023-03-21T13:54:55;14.90;99.90
563;DHT22;266;49.514;8.294;2023-03-21T13:57:37;14.80;99.90
563;DHT22;266;49.514;8.294;2023-03-21T14:00:26;14.60;99.90
563;DHT22;266;49.514;8.294;2023-03-21T14:02:58;14.30;99.90
563;DHT22;266;49.514;8.294;2023-03-21T14:05:28;14.20;99.90
563;DHT22;266;49.514;8.294;2023-03-21T14:08:00;14.20;99.90
563;DHT22;266;49.514;8.294;2023-03-21T14:10:44;14.00;99.90
563;DHT22;266;49.514;8.294;2023-03-21T14:13:16;13.80;99.90
563;DHT22;266;49.514;8.294;2023-03-21T14:15:48;13.60;99.90
563;DHT22;266;49.514;8.294;2023-03-21T14:18:24;13.50;99.90
563;DHT22;266;49.514;8.294;2023-03-21T14:21:15;13.30;99.90
563;DHT22;266;49.514;8.294;2023-03-21T14:23:56;13.10;99.90
563;DHT22;266;49.514;8.294;2023-03-21T14:26:25;13.00;99.90
563;DHT22;266;49.514;8.294;2023-03-21T14:28:54;12.80;99.90
563;DHT22;266;49.514;8.294;2023-03-21T14:31:23;12.80;99.90
563;DHT22;266;49.514;8.294;2023-03-21T14:33:55;12.70;99.90
563;DHT22;266;49.514;8.294;2023-03-21T14:36:26;12.60;99.90
563;DHT22;266;49.514;8.294;2023-03-21T14:39:00;12.60;99.90
563;DHT22;266;49.514;8.294;2023-03-21T14:41:30;12.60;99.90
563;DHT22;266;49.514;8.294;2023-03-21T14:44:07;12.60;99.90
563;DHT22;266;49.514;8.294;2023-03-21T14:46:42;12.70;99.90
563;DHT22;266;49.514;8.294;2023-03-21T14:49:12;12.80;99.90
563;DHT22;266;49.514;8.294;2023-03-21T14:51:41;12.80;99.90
563;DHT22;266;49.514;8.294;2023-03-21T14:54:14;12.90;99.90
563;DHT22;266;49.514;8.294;2023-03-21T14:56:47;12.80;99.90
563;DHT22;266;49.514;8.294;2023-03-21T14:59:19;12.80;99.90
563;DHT22;266;49.514;8.294;2023-03-21T15:01:50;12.70;99.90
563;DHT22;266;49.514;8.294;2023-03-21T15:04:19;12.80;99.90
563;DHT22;266;49.514;8.294;2023-03-21T15:06:52;12.90;99.90
563;DHT22;266;49.514;8.294;2023-03-21T15:09:23;13.00;99.90
563;DHT22;266;49.514;8.294;2023-03-21T15:11:53;13.00;99.90
563;DHT22;266;49.514;8.294;2023-03-21T15:14:28;13.10;99.90
563;DHT22;266;49.514;8.294;2023-03-21T15:16:59;13.20;99.90
563;DHT22;266;49.514;8.294;2023-03-21T15:19:32;13.20;99.90
563;DHT22;266;49.514;8.294;2023-03-21T15:22:06;13.30;99.90
563;DHT22;266;49.514;8.294;2023-03-21T15:24:38;13.30;99.90
563;DHT22;266;49.514;8.294;2023-03-21T15:27:12;13.30;99.90
563;DHT22;266;49.514;8.294;2023-03-21T15:29:42;13.30;99.90
563;DHT22;266;49.514;8.294;2023-03-21T15:32:16;13.30;99.90
563;DHT22;266;49.514;8.294;2023-03-21T15:34:51;13.30;99.90
563;DHT22;266;49.514;8.294;2023-03-21T15:37:22;13.30;99.90
563;DHT22;266;49.514;8.294;2023-03-21T15:39:52;13.30;99.90
563;DHT22;266;49.514;8.294;2023-03-21T15:42:27;13.30;99.90
563;DHT22;266;49.514;8.294;2023-03-21T15:44:57;13.20;99.90
563;DHT22;266;49.514;8.294;2023-03-21T15:47:48;13.30;99.90
563;DHT22;266;49.514;8.294;2023-03-21T15:50:24;13.30;99.90
563;DHT22;266;49.514;8.294;2023-03-21T15:52:53;13.30;99.90
563;DHT22;266;49.514;8.294;2023-03-21T15:55:24;13.30;99.90
563;DHT22;266;49.514;8.294;2023-03-21T15:57:59;13.30;99.90
563;DHT22;266;49.514;8.294;2023-03-21T16:00:34;13.30;99.90
563;DHT22;266;49.514;8.294;2023-03-21T16:03:12;13.30;99.90
563;DHT22;266;49.514;8.294;2023-03-21T16:05:47;13.30;99.90
563;DHT22;266;49.514;8.294;2023-03-21T16:08:27;13.20;99.90
563;DHT22;266;49.514;8.294;2023-03-21T16:11:06;13.20;99.90
563;DHT22;266;49.514;8.294;2023-03-21T16:13:33;13.30;99.90
563;DHT22;266;49.514;8.294;2023-03-21T16:16:01;13.30;99.90
563;DHT22;266;49.514;8.294;2023-03-21T16:18:31;13.30;99.90
563;DHT22;266;49.514;8.294;2023-03-21T16:20:59;13.30;99.90
563;DHT22;266;49.514;8.294;2023-03-21T16:23:27;13.20;99.90
563;DHT22;266;49.514;8.294;2023-03-21T16:25:55;13.20;99.90
563;DHT22;266;49.514;8.294;2023-03-21T16:28:24;13.10;99.90
563;DHT22;266;49.514;8.294;2023-03-21T16:30:52;13.10;99.90
563;DHT22;266;49.514;8.294;2023-03-21T16:33:20;13.00;99.90
563;DHT22;266;49.514;8.294;2023-03-21T16:35:49;12.90;99.90
563;DHT22;266;49.514;8.294;2023-03-21T16:38:17;12.80;99.90
563;DHT22;266;49.514;8.294;2023-03-21T16:40:45;12.80;99.90
563;DHT22;266;49.514;8.294;2023-03-21T16:43:13;12.70;99.90
563;DHT22;266;49.514;8.294;2023-03-21T16:45:41;12.70;99.90
563;DHT22;266;49.514;8.294;2023-03-21T16:48:09;12.60;99.90
563;DHT22;266;49.514;8.294;2023-03-21T16:50:44;12.60;99.90
563;DHT22;266;49.514;8.294;2023-03-21T16:53:14;12.70;99.90
563;DHT22;266;49.514;8.294;2023-03-21T16:55:42;12.70;99.90
563;DHT22;266;49.514;8.294;2023-03-21T16:58:13;12.70;99.90
563;DHT22;266;49.514;8.294;2023-03-21T17:00:42;12.70;99.90
563;DHT22;266;49.514;8.294;2023-03-21T17:03:13;12.70;99.90
563;DHT22;266;49.514;8.294;2023-03-21T17:05:44;12.70;99.90
563;DHT22;266;49.514;8.294;2023-03-21T17:08:15;12.70;99.90
563;DHT22;266;49.514;8.294;2023-03-21T17:10:44;12.70;99.90
563;DHT22;266;49.514;8.294;2023-03-21T17:13:12;12.70;99.90
563;DHT22;266;49.514;8.294;2023-03-21T17:15:40;12.60;99.90
563;DHT22;266;49.514;8.294;2023-03-21T17:18:10;12.60;99.90
563;DHT22;266;49.514;8.294;2023-03-21T17:20:38;12.60;99.90